Hauptseite
METAR-TAF:

METAR-TAF

Flughäfen :

RAF Marham

Marham, England

Breite: 52-39N, Länge: 000-34E, Höhe: 23 m

Beobachtung

Neuester Wetterbericht von vor 15 Minuten, um 06:50 UTC
Wind 3 kt aus Süd/Südwest
Temperatur 15°C
Luftfeuchtigkeit 77%
Luftdruck 1018 hPa
Sichtweite 10 km oder mehr
keine Wolken unter 1500 m und keine Kumulonimbus oder Gewitterwolken

METAR: EGYM 180650Z 20003KT CAVOK 15/11 Q1018 BLU NOSIG

Zeit: 08:05 (07:05 UTC)

Prognose

Neuester Wetterbericht von vor 2 Stunden und 31 Minuten, um 04:34 UTC
Gültige Prognose vom 18 um 06 UTC bis 18 um 15 UTC
Wind 5 kt aus unterschiedlichen Richtungen
Sichtweite 10 km oder mehr
keine Wolken unter 1500 m und keine Kumulonimbus oder Gewitterwolken

TAF: EGYM 180434Z 1806/1815 VRB05KT CAVOK

Wetterbeobachtungen und Prognosen von mehr als 4000 Flughäfen (METAR und TAF Bericht).

Die verfügbaren Stationen werden durch gelbe und rote Markierungen auf der Karte dargestellt.

Führen Sie die Maus auf sie, um den Namen der Station zu sehen.

Darauf klicken, um die Beobachtung von Wetterbeobachtungen und Prognosen zu sehen.

Um die Karte zu ändern : klicken Sie auf den grünen Tasten mit einem schwarzen Kreuz Zum Vergrößern, auf den grünen Button mit einem Gedankenstrich zu verkleinern, oder auf die grünen Pfeile für benachbarte Karten.


METAR-TAF: